MAPA DE AEROPUERTO

INFORMACIÓN METAR y TAF

METAR FOR OBBI
ADDS - METARS form results

(1449 UTC 24 September 2020)
Data provider http://aviationweather.gov/metar/data/
 
METAR text: OBBI 241430Z 02007KT CAVOK 35/26 Q1004 NOSIG
Conditions at: OBBI (BAHRAIN INTL ARP, BH) observed 1430 UTC 24 September 2020
Temperature: 35.0°C (95°F)
Dewpoint: 26.0°C (79°F) [RH = 60%]
Pressure (altimeter): 29.65 inches Hg (1004.0 mb)
Winds: from the NNE (20 degrees) at 8 MPH (7 knots; 3.6 m/s)
Visibility: 6 or more miles (10+ km)
Ceiling: ceiling and visibility are OK
Clouds: unknown
Weather: no significant weather observed at this time

METAR text: OBBI 241400Z 36008KT CAVOK 35/25 Q1004 NOSIG
Conditions at: OBBI (BAHRAIN INTL ARP, BH) observed 1400 UTC 24 September 2020
Temperature: 35.0°C (95°F)
Dewpoint: 25.0°C (77°F) [RH = 56%]
Pressure (altimeter): 29.65 inches Hg (1004.0 mb)
Winds: from the N (360 degrees) at 9 MPH (8 knots; 4.1 m/s)
Visibility: 6 or more miles (10+ km)
Ceiling: ceiling and visibility are OK
Clouds: unknown
Weather: no significant weather observed at this time

Forecast for: OBBI (BAHRAIN INTL ARP, BH)
Text: TAF OBBI 241100Z 2412/2518 36010KT 9000 NSC
Forecast period: 1200 to 1500 UTC 24 September 2020
Forecast type: FROM: standard forecast or significant change
Winds: from the N (360 degrees) at 12 MPH (10 knots; 5.1 m/s)
Visibility: 6 miles (9 km)
Ceiling: unknown
Clouds: missing
Weather: no significant weather forecast for this period
Text: BECMG 2415/2417 VRB05KT
Forecast period: 1500 UTC 24 September 2020 to 0600 UTC 25 September 2020
Forecast type: BECOMING: Conditions expected to become as follows by 1700 UTC 24 September 2020
Winds: variable direction winds at 6 MPH (5 knots; 2.6 m/s)
Visibility: 6 miles (9 km)
Ceiling: unknown
Clouds: missing
Weather: no significant weather forecast for this period
Text: PROB30
Forecast period: 0000 to 0500 UTC 25 September 2020
Forecast type: TEMPORARY: The following changes expected for less than half the time period
Visibility: 3 miles (5 km)
Ceiling: unknown
Clouds: missing
Weather: HZ  (haze)
Text: TEMPO 2500/2505 5000 HZ
Forecast period: 0600 to 1800 UTC 25 September 2020
Forecast type: BECOMING: Conditions expected to become as follows by 0800 UTC 25 September 2020
Winds: from the N (350 degrees) at 12 MPH (10 knots; 5.1 m/s)
Visibility: 6 miles (9 km)
Ceiling: unknown
Clouds: missing
Weather: no significant weather forecast for this period